KDAG/DAG METAR and TAF weather

Enter ICAO airport designator
Station Type Date Time Source
KDAG METAR 2019/10/21 21:50 UTC NOAA

KDAG 212150Z AUTO 00000KT 10SM CLR 28/M03 A3010 RMK AO2 SLP175 T02831033


Station Type Date Time Source
KDAG Decoded METAR 2019/10/21 21:50 UTC NOAA

BARSTOW-DAGGETT AIRPORT, CA, United States (KDAG) 34-51N 116-47W 587M
Oct 21, 2019 - 05:50 PM EDT / 2019.10.21 2150 UTC
Wind: Calm:0
Visibility: 10 mile(s):0
Sky conditions: clear
Temperature: 82.9 F (28.3 C)
Dew Point: 26.1 F (-3.3 C)
Relative Humidity: 12%
Pressure (altimeter): 30.1 in. Hg (1019 hPa)
ob: KDAG 212150Z AUTO 00000KT 10SM CLR 28/M03 A3010 RMK AO2 SLP175 T02831033
cycle: 22

Station Type Date Time Source
KDAG TAF 2019/10/21 18:22 UTC NOAA

TAF KDAG 211720Z 2118/2218 27010KT P6SM SCT250
FM211900 04010KT P6SM SCT250
FM220100 VRB05KT P6SM FEW250
FM220600 27007KT P6SM FEW250

Example: see airport list